sensor_id;sensor_type;location;lat;lon;timestamp;P1;durP1;ratioP1;P2;durP2;ratioP2
23682;SDS011;24897;53.514;10.482;2022-07-12T00:02:35;28.63;;;25.83;;
23682;SDS011;24897;53.514;10.482;2022-07-12T00:05:19;29.00;;;26.20;;
23682;SDS011;24897;53.514;10.482;2022-07-12T00:08:04;29.00;;;25.90;;
23682;SDS011;24897;53.514;10.482;2022-07-12T00:10:50;28.00;;;25.10;;
23682;SDS011;24897;53.514;10.482;2022-07-12T00:13:34;28.07;;;25.27;;
23682;SDS011;24897;53.514;10.482;2022-07-12T00:16:18;28.33;;;25.53;;
23682;SDS011;24897;53.514;10.482;2022-07-12T00:19:02;28.60;;;25.90;;
23682;SDS011;24897;53.514;10.482;2022-07-12T00:21:46;28.10;;;25.40;;
23682;SDS011;24897;53.514;10.482;2022-07-12T00:24:30;28.10;;;25.40;;
23682;SDS011;24897;53.514;10.482;2022-07-12T00:27:14;28.53;;;25.73;;
23682;SDS011;24897;53.514;10.482;2022-07-12T00:29:58;27.60;;;24.90;;
23682;SDS011;24897;53.514;10.482;2022-07-12T00:32:42;28.07;;;25.27;;
23682;SDS011;24897;53.514;10.482;2022-07-12T00:35:27;28.77;;;25.97;;
23682;SDS011;24897;53.514;10.482;2022-07-12T00:38:11;28.57;;;25.77;;
23682;SDS011;24897;53.514;10.482;2022-07-12T00:40:55;28.60;;;25.80;;
23682;SDS011;24897;53.514;10.482;2022-07-12T00:43:39;29.60;;;26.60;;
23682;SDS011;24897;53.514;10.482;2022-07-12T00:46:24;29.50;;;26.57;;
23682;SDS011;24897;53.514;10.482;2022-07-12T00:49:08;28.97;;;26.17;;
23682;SDS011;24897;53.514;10.482;2022-07-12T00:51:52;29.13;;;26.23;;
23682;SDS011;24897;53.514;10.482;2022-07-12T00:54:37;29.57;;;26.70;;
23682;SDS011;24897;53.514;10.482;2022-07-12T00:57:22;28.87;;;26.07;;
23682;SDS011;24897;53.514;10.482;2022-07-12T01:00:07;29.30;;;26.33;;
23682;SDS011;24897;53.514;10.482;2022-07-12T01:02:54;29.70;;;26.80;;
23682;SDS011;24897;53.514;10.482;2022-07-12T01:05:39;29.40;;;26.47;;
23682;SDS011;24897;53.514;10.482;2022-07-12T01:08:24;30.57;;;27.40;;
23682;SDS011;24897;53.514;10.482;2022-07-12T01:11:08;29.47;;;26.47;;
23682;SDS011;24897;53.514;10.482;2022-07-12T01:13:52;29.17;;;26.13;;
23682;SDS011;24897;53.514;10.482;2022-07-12T01:16:38;29.00;;;26.17;;
23682;SDS011;24897;53.514;10.482;2022-07-12T01:19:23;29.47;;;26.47;;
23682;SDS011;24897;53.514;10.482;2022-07-12T01:22:11;29.33;;;26.43;;
23682;SDS011;24897;53.514;10.482;2022-07-12T01:24:59;29.57;;;26.37;;
23682;SDS011;24897;53.514;10.482;2022-07-12T01:27:44;29.00;;;26.10;;
23682;SDS011;24897;53.514;10.482;2022-07-12T01:30:29;29.73;;;26.73;;
23682;SDS011;24897;53.514;10.482;2022-07-12T01:33:14;29.63;;;26.73;;
23682;SDS011;24897;53.514;10.482;2022-07-12T01:35:59;31.37;;;28.27;;
23682;SDS011;24897;53.514;10.482;2022-07-12T01:38:44;30.33;;;27.13;;
23682;SDS011;24897;53.514;10.482;2022-07-12T01:41:28;30.03;;;26.93;;
23682;SDS011;24897;53.514;10.482;2022-07-12T01:44:12;30.03;;;26.97;;
23682;SDS011;24897;53.514;10.482;2022-07-12T01:46:56;29.83;;;26.80;;
23682;SDS011;24897;53.514;10.482;2022-07-12T01:49:41;31.53;;;28.33;;
23682;SDS011;24897;53.514;10.482;2022-07-12T01:52:25;31.10;;;28.00;;
23682;SDS011;24897;53.514;10.482;2022-07-12T01:55:11;30.83;;;27.73;;
23682;SDS011;24897;53.514;10.482;2022-07-12T01:57:55;30.90;;;27.80;;
23682;SDS011;24897;53.514;10.482;2022-07-12T02:00:40;29.83;;;26.87;;
23682;SDS011;24897;53.514;10.482;2022-07-12T02:03:24;30.13;;;26.83;;
23682;SDS011;24897;53.514;10.482;2022-07-12T02:06:08;30.60;;;27.40;;
23682;SDS011;24897;53.514;10.482;2022-07-12T02:08:52;30.37;;;27.27;;
23682;SDS011;24897;53.514;10.482;2022-07-12T02:11:36;31.50;;;28.37;;
23682;SDS011;24897;53.514;10.482;2022-07-12T02:14:21;30.40;;;27.50;;
23682;SDS011;24897;53.514;10.482;2022-07-12T02:17:05;29.97;;;26.47;;
23682;SDS011;24897;53.514;10.482;2022-07-12T02:19:49;31.03;;;26.83;;
23682;SDS011;24897;53.514;10.482;2022-07-12T02:22:34;28.87;;;25.97;;
23682;SDS011;24897;53.514;10.482;2022-07-12T02:25:18;29.57;;;26.47;;
23682;SDS011;24897;53.514;10.482;2022-07-12T02:28:02;30.43;;;27.43;;
23682;SDS011;24897;53.514;10.482;2022-07-12T02:30:47;30.40;;;27.27;;
23682;SDS011;24897;53.514;10.482;2022-07-12T02:33:31;31.70;;;28.60;;
23682;SDS011;24897;53.514;10.482;2022-07-12T02:36:15;31.03;;;27.83;;
23682;SDS011;24897;53.514;10.482;2022-07-12T02:39:02;31.03;;;27.83;;
23682;SDS011;24897;53.514;10.482;2022-07-12T02:41:48;30.63;;;27.57;;
23682;SDS011;24897;53.514;10.482;2022-07-12T02:44:32;31.97;;;28.53;;
23682;SDS011;24897;53.514;10.482;2022-07-12T02:47:16;32.03;;;28.63;;
23682;SDS011;24897;53.514;10.482;2022-07-12T02:50:00;31.30;;;28.10;;
23682;SDS011;24897;53.514;10.482;2022-07-12T02:52:44;31.20;;;28.00;;
23682;SDS011;24897;53.514;10.482;2022-07-12T02:55:28;30.53;;;27.43;;
23682;SDS011;24897;53.514;10.482;2022-07-12T02:58:12;30.87;;;27.67;;
23682;SDS011;24897;53.514;10.482;2022-07-12T03:00:56;30.27;;;27.27;;
23682;SDS011;24897;53.514;10.482;2022-07-12T03:03:40;30.87;;;27.67;;
23682;SDS011;24897;53.514;10.482;2022-07-12T03:06:25;30.60;;;27.40;;
23682;SDS011;24897;53.514;10.482;2022-07-12T03:09:09;30.17;;;27.10;;
23682;SDS011;24897;53.514;10.482;2022-07-12T03:11:53;30.53;;;27.33;;
23682;SDS011;24897;53.514;10.482;2022-07-12T03:14:37;30.23;;;27.13;;
23682;SDS011;24897;53.514;10.482;2022-07-12T03:17:21;32.50;;;28.87;;
23682;SDS011;24897;53.514;10.482;2022-07-12T03:20:06;30.70;;;27.50;;
23682;SDS011;24897;53.514;10.482;2022-07-12T03:22:52;33.40;;;29.80;;
23682;SDS011;24897;53.514;10.482;2022-07-12T03:25:37;33.83;;;30.33;;
23682;SDS011;24897;53.514;10.482;2022-07-12T03:28:21;32.47;;;28.87;;
23682;SDS011;24897;53.514;10.482;2022-07-12T03:31:05;31.27;;;27.97;;
23682;SDS011;24897;53.514;10.482;2022-07-12T03:33:49;29.93;;;26.93;;
23682;SDS011;24897;53.514;10.482;2022-07-12T03:36:33;27.80;;;25.00;;
23682;SDS011;24897;53.514;10.482;2022-07-12T03:39:17;27.67;;;24.97;;
23682;SDS011;24897;53.514;10.482;2022-07-12T03:42:01;26.03;;;23.63;;
23682;SDS011;24897;53.514;10.482;2022-07-12T03:44:46;24.90;;;22.60;;
23682;SDS011;24897;53.514;10.482;2022-07-12T03:47:30;24.30;;;22.20;;
23682;SDS011;24897;53.514;10.482;2022-07-12T03:50:15;25.17;;;23.07;;
23682;SDS011;24897;53.514;10.482;2022-07-12T03:52:59;24.70;;;22.60;;
23682;SDS011;24897;53.514;10.482;2022-07-12T03:55:43;23.47;;;21.47;;
23682;SDS011;24897;53.514;10.482;2022-07-12T03:58:28;23.57;;;21.60;;
23682;SDS011;24897;53.514;10.482;2022-07-12T04:01:12;23.00;;;21.10;;
23682;SDS011;24897;53.514;10.482;2022-07-12T04:03:56;24.50;;;22.40;;
23682;SDS011;24897;53.514;10.482;2022-07-12T04:06:41;23.40;;;21.50;;
23682;SDS011;24897;53.514;10.482;2022-07-12T04:09:25;22.90;;;21.00;;
23682;SDS011;24897;53.514;10.482;2022-07-12T04:12:09;23.30;;;21.50;;
23682;SDS011;24897;53.514;10.482;2022-07-12T04:14:53;23.07;;;21.27;;
23682;SDS011;24897;53.514;10.482;2022-07-12T04:17:37;22.47;;;20.67;;
23682;SDS011;24897;53.514;10.482;2022-07-12T04:20:22;22.83;;;21.03;;
23682;SDS011;24897;53.514;10.482;2022-07-12T04:23:09;21.70;;;20.00;;
23682;SDS011;24897;53.514;10.482;2022-07-12T04:25:53;22.50;;;20.60;;
23682;SDS011;24897;53.514;10.482;2022-07-12T04:28:37;24.23;;;22.17;;
23682;SDS011;24897;53.514;10.482;2022-07-12T04:31:21;22.37;;;20.57;;
23682;SDS011;24897;53.514;10.482;2022-07-12T04:34:05;21.97;;;20.23;;
23682;SDS011;24897;53.514;10.482;2022-07-12T04:36:49;20.47;;;18.87;;
23682;SDS011;24897;53.514;10.482;2022-07-12T04:39:33;20.80;;;19.03;;
23682;SDS011;24897;53.514;10.482;2022-07-12T04:42:17;19.33;;;17.83;;
23682;SDS011;24897;53.514;10.482;2022-07-12T04:45:02;19.95;;;18.35;;
23682;SDS011;24897;53.514;10.482;2022-07-12T04:47:47;19.50;;;17.90;;
23682;SDS011;24897;53.514;10.482;2022-07-12T04:50:32;18.45;;;16.98;;
23682;SDS011;24897;53.514;10.482;2022-07-12T04:53:16;18.63;;;17.13;;
23682;SDS011;24897;53.514;10.482;2022-07-12T04:56:00;17.52;;;16.13;;
23682;SDS011;24897;53.514;10.482;2022-07-12T04:58:44;20.00;;;18.20;;
23682;SDS011;24897;53.514;10.482;2022-07-12T05:01:29;18.15;;;16.75;;
23682;SDS011;24897;53.514;10.482;2022-07-12T05:04:13;18.75;;;17.20;;
23682;SDS011;24897;53.514;10.482;2022-07-12T05:06:57;18.42;;;16.80;;
23682;SDS011;24897;53.514;10.482;2022-07-12T05:09:42;17.65;;;16.25;;
23682;SDS011;24897;53.514;10.482;2022-07-12T05:12:25;18.55;;;16.95;;
23682;SDS011;24897;53.514;10.482;2022-07-12T05:15:10;21.38;;;19.55;;
23682;SDS011;24897;53.514;10.482;2022-07-12T05:17:55;22.30;;;20.30;;
23682;SDS011;24897;53.514;10.482;2022-07-12T05:20:39;27.83;;;24.97;;
23682;SDS011;24897;53.514;10.482;2022-07-12T05:23:23;26.70;;;24.40;;
23682;SDS011;24897;53.514;10.482;2022-07-12T05:26:08;28.60;;;26.00;;
23682;SDS011;24897;53.514;10.482;2022-07-12T05:28:52;27.83;;;25.37;;
23682;SDS011;24897;53.514;10.482;2022-07-12T05:31:36;26.30;;;24.00;;
23682;SDS011;24897;53.514;10.482;2022-07-12T05:34:21;25.03;;;22.73;;
23682;SDS011;24897;53.514;10.482;2022-07-12T05:37:05;25.47;;;23.07;;
23682;SDS011;24897;53.514;10.482;2022-07-12T05:39:50;28.87;;;26.27;;
23682;SDS011;24897;53.514;10.482;2022-07-12T05:42:35;28.47;;;25.93;;
23682;SDS011;24897;53.514;10.482;2022-07-12T05:45:20;25.27;;;23.07;;
23682;SDS011;24897;53.514;10.482;2022-07-12T05:48:06;25.50;;;23.17;;
23682;SDS011;24897;53.514;10.482;2022-07-12T05:50:50;24.30;;;22.10;;
23682;SDS011;24897;53.514;10.482;2022-07-12T05:53:34;23.43;;;21.43;;
23682;SDS011;24897;53.514;10.482;2022-07-12T05:56:18;22.70;;;20.70;;
23682;SDS011;24897;53.514;10.482;2022-07-12T05:59:02;24.27;;;22.27;;
23682;SDS011;24897;53.514;10.482;2022-07-12T06:01:46;23.40;;;21.37;;
23682;SDS011;24897;53.514;10.482;2022-07-12T06:04:30;25.10;;;22.77;;
23682;SDS011;24897;53.514;10.482;2022-07-12T06:07:14;24.67;;;22.57;;
23682;SDS011;24897;53.514;10.482;2022-07-12T06:09:58;23.97;;;21.97;;
23682;SDS011;24897;53.514;10.482;2022-07-12T06:12:42;21.30;;;19.43;;
23682;SDS011;24897;53.514;10.482;2022-07-12T06:15:26;21.93;;;20.07;;
23682;SDS011;24897;53.514;10.482;2022-07-12T06:18:10;22.03;;;20.13;;
23682;SDS011;24897;53.514;10.482;2022-07-12T06:20:54;21.53;;;19.63;;
23682;SDS011;24897;53.514;10.482;2022-07-12T06:23:38;22.47;;;20.47;;
23682;SDS011;24897;53.514;10.482;2022-07-12T06:26:22;22.17;;;20.27;;
23682;SDS011;24897;53.514;10.482;2022-07-12T06:29:06;23.53;;;21.27;;
23682;SDS011;24897;53.514;10.482;2022-07-12T06:31:51;25.37;;;23.07;;
23682;SDS011;24897;53.514;10.482;2022-07-12T06:34:36;29.23;;;26.43;;
23682;SDS011;24897;53.514;10.482;2022-07-12T06:37:21;28.07;;;25.47;;
23682;SDS011;24897;53.514;10.482;2022-07-12T06:40:07;29.27;;;26.60;;
23682;SDS011;24897;53.514;10.482;2022-07-12T06:42:52;26.57;;;23.97;;
23682;SDS011;24897;53.514;10.482;2022-07-12T06:45:36;28.77;;;26.17;;
23682;SDS011;24897;53.514;10.482;2022-07-12T06:48:21;28.70;;;26.00;;
23682;SDS011;24897;53.514;10.482;2022-07-12T06:51:05;24.73;;;22.63;;
23682;SDS011;24897;53.514;10.482;2022-07-12T06:53:49;24.77;;;22.63;;
23682;SDS011;24897;53.514;10.482;2022-07-12T06:56:33;23.77;;;21.77;;
23682;SDS011;24897;53.514;10.482;2022-07-12T06:59:18;23.60;;;21.50;;
23682;SDS011;24897;53.514;10.482;2022-07-12T07:02:02;22.77;;;20.77;;
23682;SDS011;24897;53.514;10.482;2022-07-12T07:04:46;25.00;;;22.90;;
23682;SDS011;24897;53.514;10.482;2022-07-12T07:07:30;25.50;;;23.20;;
23682;SDS011;24897;53.514;10.482;2022-07-12T07:10:15;24.30;;;21.87;;
23682;SDS011;24897;53.514;10.482;2022-07-12T07:12:59;22.93;;;21.03;;
23682;SDS011;24897;53.514;10.482;2022-07-12T07:15:44;21.60;;;19.67;;
23682;SDS011;24897;53.514;10.482;2022-07-12T07:18:28;22.80;;;20.60;;
23682;SDS011;24897;53.514;10.482;2022-07-12T07:21:12;21.17;;;19.40;;
23682;SDS011;24897;53.514;10.482;2022-07-12T07:23:56;20.80;;;19.03;;
23682;SDS011;24897;53.514;10.482;2022-07-12T07:26:40;22.67;;;20.77;;
23682;SDS011;24897;53.514;10.482;2022-07-12T07:29:24;22.00;;;20.20;;
23682;SDS011;24897;53.514;10.482;2022-07-12T07:32:28;21.50;;;19.60;;
23682;SDS011;24897;53.514;10.482;2022-07-12T07:35:12;22.63;;;20.83;;
23682;SDS011;24897;53.514;10.482;2022-07-12T07:37:56;21.90;;;20.00;;
23682;SDS011;24897;53.514;10.482;2022-07-12T07:40:40;21.87;;;20.07;;
23682;SDS011;24897;53.514;10.482;2022-07-12T07:43:24;22.40;;;20.57;;
23682;SDS011;24897;53.514;10.482;2022-07-12T07:46:09;22.60;;;20.80;;
23682;SDS011;24897;53.514;10.482;2022-07-12T07:48:53;21.10;;;19.30;;
23682;SDS011;24897;53.514;10.482;2022-07-12T07:51:37;21.80;;;20.10;;
23682;SDS011;24897;53.514;10.482;2022-07-12T07:54:21;22.27;;;20.50;;
23682;SDS011;24897;53.514;10.482;2022-07-12T07:57:05;21.17;;;19.40;;
23682;SDS011;24897;53.514;10.482;2022-07-12T07:59:49;20.47;;;18.77;;
23682;SDS011;24897;53.514;10.482;2022-07-12T08:02:33;19.50;;;17.90;;
23682;SDS011;24897;53.514;10.482;2022-07-12T08:05:18;18.87;;;17.27;;
23682;SDS011;24897;53.514;10.482;2022-07-12T08:08:02;19.23;;;17.60;;
23682;SDS011;24897;53.514;10.482;2022-07-12T08:10:48;19.40;;;17.90;;
23682;SDS011;24897;53.514;10.482;2022-07-12T08:13:33;20.00;;;18.40;;
23682;SDS011;24897;53.514;10.482;2022-07-12T08:16:17;19.30;;;17.70;;
23682;SDS011;24897;53.514;10.482;2022-07-12T08:19:01;19.27;;;17.77;;
23682;SDS011;24897;53.514;10.482;2022-07-12T08:21:46;20.47;;;18.77;;
23682;SDS011;24897;53.514;10.482;2022-07-12T08:24:30;20.10;;;18.37;;
23682;SDS011;24897;53.514;10.482;2022-07-12T08:27:14;19.37;;;17.87;;
23682;SDS011;24897;53.514;10.482;2022-07-12T08:29:58;20.77;;;19.03;;
23682;SDS011;24897;53.514;10.482;2022-07-12T08:32:45;20.70;;;19.10;;
23682;SDS011;24897;53.514;10.482;2022-07-12T08:35:30;19.97;;;18.37;;
23682;SDS011;24897;53.514;10.482;2022-07-12T08:38:14;19.97;;;17.93;;
23682;SDS011;24897;53.514;10.482;2022-07-12T08:40:59;17.90;;;16.33;;
23682;SDS011;24897;53.514;10.482;2022-07-12T08:43:43;18.13;;;16.57;;
23682;SDS011;24897;53.514;10.482;2022-07-12T08:46:27;18.90;;;17.10;;
23682;SDS011;24897;53.514;10.482;2022-07-12T08:49:11;17.50;;;16.13;;
23682;SDS011;24897;53.514;10.482;2022-07-12T08:51:55;18.73;;;17.00;;
23682;SDS011;24897;53.514;10.482;2022-07-12T08:54:39;18.10;;;16.60;;
23682;SDS011;24897;53.514;10.482;2022-07-12T08:57:29;17.47;;;15.97;;
23682;SDS011;24897;53.514;10.482;2022-07-12T09:00:15;17.23;;;15.83;;
23682;SDS011;24897;53.514;10.482;2022-07-12T09:03:00;18.43;;;17.03;;
23682;SDS011;24897;53.514;10.482;2022-07-12T09:05:52;18.27;;;16.87;;
23682;SDS011;24897;53.514;10.482;2022-07-12T09:08:38;17.73;;;16.33;;
23682;SDS011;24897;53.514;10.482;2022-07-12T09:11:22;20.47;;;18.60;;
23682;SDS011;24897;53.514;10.482;2022-07-12T09:14:07;18.07;;;16.57;;
23682;SDS011;24897;53.514;10.482;2022-07-12T09:19:53;17.50;;;16.10;;
23682;SDS011;24897;53.514;10.482;2022-07-12T09:22:47;17.30;;;15.90;;
23682;SDS011;24897;53.514;10.482;2022-07-12T09:25:41;17.48;;;16.10;;
23682;SDS011;24897;53.514;10.482;2022-07-12T09:31:43;18.00;;;16.30;;
23682;SDS011;24897;53.514;10.482;2022-07-12T09:34:55;18.50;;;16.90;;
23682;SDS011;24897;53.514;10.482;2022-07-12T09:38:09;17.83;;;16.43;;
23682;SDS011;24897;53.514;10.482;2022-07-12T09:40:54;18.63;;;17.00;;
23682;SDS011;24897;53.514;10.482;2022-07-12T09:43:57;18.27;;;16.77;;
23682;SDS011;24897;53.514;10.482;2022-07-12T09:46:42;18.27;;;16.87;;
23682;SDS011;24897;53.514;10.482;2022-07-12T09:49:28;18.15;;;16.67;;
23682;SDS011;24897;53.514;10.482;2022-07-12T09:52:19;18.40;;;16.90;;
23682;SDS011;24897;53.514;10.482;2022-07-12T09:55:09;18.43;;;16.93;;
23682;SDS011;24897;53.514;10.482;2022-07-12T09:57:55;18.83;;;17.23;;
23682;SDS011;24897;53.514;10.482;2022-07-12T10:00:42;17.90;;;16.50;;
23682;SDS011;24897;53.514;10.482;2022-07-12T10:03:28;17.67;;;16.27;;
23682;SDS011;24897;53.514;10.482;2022-07-12T10:06:16;17.88;;;16.48;;
23682;SDS011;24897;53.514;10.482;2022-07-12T10:09:07;17.60;;;16.07;;
23682;SDS011;24897;53.514;10.482;2022-07-12T10:11:51;18.10;;;16.70;;
23682;SDS011;24897;53.514;10.482;2022-07-12T10:14:37;17.70;;;16.30;;
23682;SDS011;24897;53.514;10.482;2022-07-12T10:17:22;17.95;;;16.55;;
23682;SDS011;24897;53.514;10.482;2022-07-12T10:20:18;17.38;;;15.98;;
23682;SDS011;24897;53.514;10.482;2022-07-12T10:29:01;17.27;;;15.77;;
23682;SDS011;24897;53.514;10.482;2022-07-12T10:31:48;18.92;;;16.65;;
23682;SDS011;24897;53.514;10.482;2022-07-12T10:34:32;17.75;;;16.35;;
23682;SDS011;24897;53.514;10.482;2022-07-12T10:37:19;17.52;;;16.13;;
23682;SDS011;24897;53.514;10.482;2022-07-12T10:40:17;17.25;;;15.95;;
23682;SDS011;24897;53.514;10.482;2022-07-12T10:45:47;16.20;;;14.98;;
23682;SDS011;24897;53.514;10.482;2022-07-12T10:48:32;16.15;;;14.75;;
23682;SDS011;24897;53.514;10.482;2022-07-12T10:51:19;16.58;;;15.18;;
23682;SDS011;24897;53.514;10.482;2022-07-12T10:54:19;16.63;;;15.15;;
23682;SDS011;24897;53.514;10.482;2022-07-12T10:57:05;18.08;;;16.35;;
23682;SDS011;24897;53.514;10.482;2022-07-12T11:00:12;23.73;;;21.52;;
23682;SDS011;24897;53.514;10.482;2022-07-12T11:03:00;15.70;;;14.50;;
23682;SDS011;24897;53.514;10.482;2022-07-12T11:05:45;16.73;;;15.32;;
23682;SDS011;24897;53.514;10.482;2022-07-12T11:08:30;16.58;;;15.20;;
23682;SDS011;24897;53.514;10.482;2022-07-12T11:11:43;16.52;;;15.13;;
23682;SDS011;24897;53.514;10.482;2022-07-12T11:14:35;16.40;;;14.90;;
23682;SDS011;24897;53.514;10.482;2022-07-12T11:17:26;15.73;;;14.43;;
23682;SDS011;24897;53.514;10.482;2022-07-12T11:23:14;15.68;;;14.38;;
23682;SDS011;24897;53.514;10.482;2022-07-12T11:26:00;16.27;;;14.95;;
23682;SDS011;24897;53.514;10.482;2022-07-12T11:28:45;16.10;;;14.90;;
23682;SDS011;24897;53.514;10.482;2022-07-12T11:31:31;16.30;;;14.90;;
23682;SDS011;24897;53.514;10.482;2022-07-12T11:34:21;15.68;;;14.43;;
23682;SDS011;24897;53.514;10.482;2022-07-12T11:37:06;16.13;;;14.73;;
23682;SDS011;24897;53.514;10.482;2022-07-12T11:39:50;15.63;;;14.43;;
23682;SDS011;24897;53.514;10.482;2022-07-12T11:42:35;16.13;;;14.82;;
23682;SDS011;24897;53.514;10.482;2022-07-12T11:45:18;16.38;;;14.98;;
23682;SDS011;24897;53.514;10.482;2022-07-12T11:48:03;16.33;;;14.98;;
23682;SDS011;24897;53.514;10.482;2022-07-12T11:50:48;16.02;;;14.63;;
23682;SDS011;24897;53.514;10.482;2022-07-12T11:53:38;15.77;;;14.57;;
23682;SDS011;24897;53.514;10.482;2022-07-12T11:56:28;15.85;;;14.50;;
23682;SDS011;24897;53.514;10.482;2022-07-12T11:59:21;16.85;;;15.30;;
23682;SDS011;24897;53.514;10.482;2022-07-12T12:02:06;15.90;;;14.70;;
23682;SDS011;24897;53.514;10.482;2022-07-12T12:04:53;16.10;;;14.77;;
23682;SDS011;24897;53.514;10.482;2022-07-12T12:07:39;16.15;;;14.77;;
23682;SDS011;24897;53.514;10.482;2022-07-12T12:10:23;15.63;;;14.43;;
23682;SDS011;24897;53.514;10.482;2022-07-12T12:13:14;15.80;;;14.50;;
23682;SDS011;24897;53.514;10.482;2022-07-12T12:16:03;15.93;;;14.52;;
23682;SDS011;24897;53.514;10.482;2022-07-12T12:18:49;15.60;;;14.40;;
23682;SDS011;24897;53.514;10.482;2022-07-12T12:21:34;15.90;;;14.60;;
23682;SDS011;24897;53.514;10.482;2022-07-12T12:24:18;15.90;;;14.70;;
23682;SDS011;24897;53.514;10.482;2022-07-12T12:30:07;15.68;;;14.43;;
23682;SDS011;24897;53.514;10.482;2022-07-12T12:33:02;15.77;;;14.57;;
23682;SDS011;24897;53.514;10.482;2022-07-12T12:35:49;16.00;;;14.80;;
23682;SDS011;24897;53.514;10.482;2022-07-12T12:38:34;16.40;;;15.00;;
23682;SDS011;24897;53.514;10.482;2022-07-12T12:41:20;15.90;;;14.60;;
23682;SDS011;24897;53.514;10.482;2022-07-12T12:44:10;16.52;;;15.25;;
23682;SDS011;24897;53.514;10.482;2022-07-12T12:46:56;16.02;;;14.77;;
23682;SDS011;24897;53.514;10.482;2022-07-12T12:50:01;15.77;;;14.35;;
23682;SDS011;24897;53.514;10.482;2022-07-12T12:52:47;16.65;;;15.38;;
23682;SDS011;24897;53.514;10.482;2022-07-12T12:55:31;16.55;;;15.18;;
23682;SDS011;24897;53.514;10.482;2022-07-12T12:58:16;16.80;;;15.48;;
23682;SDS011;24897;53.514;10.482;2022-07-12T13:01:02;16.23;;;15.02;;
23682;SDS011;24897;53.514;10.482;2022-07-12T13:03:47;15.95;;;14.75;;
23682;SDS011;24897;53.514;10.482;2022-07-12T13:06:31;15.32;;;14.20;;
23682;SDS011;24897;53.514;10.482;2022-07-12T13:09:15;16.20;;;15.00;;
23682;SDS011;24897;53.514;10.482;2022-07-12T13:12:00;15.70;;;14.52;;
23682;SDS011;24897;53.514;10.482;2022-07-12T13:14:44;15.85;;;14.55;;
23682;SDS011;24897;53.514;10.482;2022-07-12T13:17:28;15.32;;;14.23;;
23682;SDS011;24897;53.514;10.482;2022-07-12T13:20:14;15.52;;;14.43;;
23682;SDS011;24897;53.514;10.482;2022-07-12T13:22:58;17.95;;;16.42;;
23682;SDS011;24897;53.514;10.482;2022-07-12T13:25:44;16.38;;;15.07;;
23682;SDS011;24897;53.514;10.482;2022-07-12T13:28:28;15.70;;;14.50;;
23682;SDS011;24897;53.514;10.482;2022-07-12T13:31:12;16.02;;;14.80;;
23682;SDS011;24897;53.514;10.482;2022-07-12T13:33:56;15.73;;;14.63;;
23682;SDS011;24897;53.514;10.482;2022-07-12T13:36:40;15.90;;;14.70;;
23682;SDS011;24897;53.514;10.482;2022-07-12T13:39:24;15.82;;;14.68;;
23682;SDS011;24897;53.514;10.482;2022-07-12T13:42:27;16.05;;;14.82;;
23682;SDS011;24897;53.514;10.482;2022-07-12T13:45:12;16.20;;;15.00;;
23682;SDS011;24897;53.514;10.482;2022-07-12T13:47:59;16.05;;;14.85;;
23682;SDS011;24897;53.514;10.482;2022-07-12T13:50:44;15.88;;;14.77;;
23682;SDS011;24897;53.514;10.482;2022-07-12T13:53:30;15.85;;;14.55;;
23682;SDS011;24897;53.514;10.482;2022-07-12T13:56:15;16.67;;;15.18;;
23682;SDS011;24897;53.514;10.482;2022-07-12T13:59:00;15.57;;;14.48;;
23682;SDS011;24897;53.514;10.482;2022-07-12T14:01:44;15.40;;;14.30;;
23682;SDS011;24897;53.514;10.482;2022-07-12T14:04:30;15.60;;;14.50;;
23682;SDS011;24897;53.514;10.482;2022-07-12T14:07:14;15.63;;;14.52;;
23682;SDS011;24897;53.514;10.482;2022-07-12T14:09:59;16.30;;;15.00;;
23682;SDS011;24897;53.514;10.482;2022-07-12T14:12:44;14.82;;;13.73;;
23682;SDS011;24897;53.514;10.482;2022-07-12T14:15:28;15.70;;;14.60;;
23682;SDS011;24897;53.514;10.482;2022-07-12T14:18:21;15.30;;;14.05;;
23682;SDS011;24897;53.514;10.482;2022-07-12T14:21:06;15.30;;;14.20;;
23682;SDS011;24897;53.514;10.482;2022-07-12T14:23:50;15.02;;;13.82;;
23682;SDS011;24897;53.514;10.482;2022-07-12T14:26:34;14.80;;;13.70;;
23682;SDS011;24897;53.514;10.482;2022-07-12T14:29:19;15.57;;;14.35;;
23682;SDS011;24897;53.514;10.482;2022-07-12T14:32:03;15.57;;;14.38;;
23682;SDS011;24897;53.514;10.482;2022-07-12T14:34:47;15.77;;;14.50;;
23682;SDS011;24897;53.514;10.482;2022-07-12T14:37:32;15.80;;;14.52;;
23682;SDS011;24897;53.514;10.482;2022-07-12T14:40:20;15.43;;;14.32;;
23682;SDS011;24897;53.514;10.482;2022-07-12T14:43:04;14.55;;;13.45;;
23682;SDS011;24897;53.514;10.482;2022-07-12T14:45:48;14.50;;;13.50;;
23682;SDS011;24897;53.514;10.482;2022-07-12T14:48:32;14.80;;;13.70;;
23682;SDS011;24897;53.514;10.482;2022-07-12T14:51:16;14.98;;;13.88;;
23682;SDS011;24897;53.514;10.482;2022-07-12T14:54:00;14.80;;;13.80;;
23682;SDS011;24897;53.514;10.482;2022-07-12T14:56:45;14.80;;;13.70;;
23682;SDS011;24897;53.514;10.482;2022-07-12T14:59:29;15.50;;;14.15;;
23682;SDS011;24897;53.514;10.482;2022-07-12T15:02:13;15.43;;;14.23;;
23682;SDS011;24897;53.514;10.482;2022-07-12T15:04:57;15.05;;;13.95;;
23682;SDS011;24897;53.514;10.482;2022-07-12T15:07:46;15.05;;;13.95;;
23682;SDS011;24897;53.514;10.482;2022-07-12T15:10:30;15.00;;;13.70;;
23682;SDS011;24897;53.514;10.482;2022-07-12T15:13:14;14.93;;;13.75;;
23682;SDS011;24897;53.514;10.482;2022-07-12T15:15:59;15.18;;;14.07;;
23682;SDS011;24897;53.514;10.482;2022-07-12T15:18:43;14.63;;;13.52;;
23682;SDS011;24897;53.514;10.482;2022-07-12T15:21:28;14.93;;;13.90;;
23682;SDS011;24897;53.514;10.482;2022-07-12T15:24:12;14.80;;;13.68;;
23682;SDS011;24897;53.514;10.482;2022-07-12T15:26:56;15.20;;;14.00;;
23682;SDS011;24897;53.514;10.482;2022-07-12T15:29:41;14.82;;;13.73;;
23682;SDS011;24897;53.514;10.482;2022-07-12T15:32:26;14.65;;;13.55;;
23682;SDS011;24897;53.514;10.482;2022-07-12T15:35:10;14.93;;;13.73;;
23682;SDS011;24897;53.514;10.482;2022-07-12T15:37:54;16.48;;;15.15;;
23682;SDS011;24897;53.514;10.482;2022-07-12T15:40:39;14.98;;;13.82;;
23682;SDS011;24897;53.514;10.482;2022-07-12T15:43:23;15.15;;;14.05;;
23682;SDS011;24897;53.514;10.482;2022-07-12T15:46:08;14.73;;;13.63;;
23682;SDS011;24897;53.514;10.482;2022-07-12T15:48:53;14.93;;;13.82;;
23682;SDS011;24897;53.514;10.482;2022-07-12T15:51:38;15.38;;;14.18;;
23682;SDS011;24897;53.514;10.482;2022-07-12T15:54:41;15.48;;;14.18;;
23682;SDS011;24897;53.514;10.482;2022-07-12T15:57:25;14.93;;;13.82;;
23682;SDS011;24897;53.514;10.482;2022-07-12T16:00:10;15.13;;;14.02;;
23682;SDS011;24897;53.514;10.482;2022-07-12T16:02:54;15.30;;;14.00;;
23682;SDS011;24897;53.514;10.482;2022-07-12T16:05:38;14.57;;;13.48;;
23682;SDS011;24897;53.514;10.482;2022-07-12T16:08:22;14.75;;;13.60;;
23682;SDS011;24897;53.514;10.482;2022-07-12T16:11:07;15.02;;;13.80;;
23682;SDS011;24897;53.514;10.482;2022-07-12T16:13:51;14.55;;;13.55;;
23682;SDS011;24897;53.514;10.482;2022-07-12T16:16:38;14.82;;;13.73;;